Time;durP1;ratioP1;P1;durP2;ratioP2;P2;SDS_P1;SDS_P2;PMS_P1;PMS_P2;Temp;Humidity;BMP_temperature;BMP_pressure;BME280_temperature;BME280_humidity;BME280_pressure;Samples;Min_cycle;Max_cycle;Signal;HPM_P1;HPM_P2
2023/01/15 00:01:58;;;;;;;6.88;2.60;;;;;;;5.41;100.00;99363.59;10204927;28;20536;-68
2023/01/15 00:06:54;;;;;;;4.20;2.42;;;;;;;5.36;100.00;99357.50;10215992;28;20521;-68
2023/01/15 00:11:50;;;;;;;4.32;2.88;;;;;;;5.35;100.00;99366.75;10172809;28;20121;-68
2023/01/15 00:16:51;;;;;;;8.88;2.60;;;;;;;5.35;100.00;99362.13;10212764;28;20038;-67
2023/01/15 00:21:47;;;;;;;6.30;2.80;;;;;;;5.31;100.00;99344.09;10200039;28;20054;-68
2023/01/15 00:32:05;;;;;;;8.40;3.00;;;;;;;5.28;100.00;99351.75;10160114;28;20085;-68
2023/01/15 00:37:01;;;;;;;;;;;;;;;5.30;100.00;99358.78;10168308;28;20112;-67
2023/01/15 00:41:58;;;;;;;5.65;2.45;;;;;;;5.31;100.00;99376.63;10159694;28;20409;-68
2023/01/15 00:46:54;;;;;;;3.70;2.50;;;;;;;5.30;100.00;99391.31;10222256;28;20083;-68
2023/01/15 00:51:51;;;;;;;8.27;3.10;;;;;;;5.29;100.00;99385.06;10212121;28;20397;-67
2023/01/15 00:56:47;;;;;;;6.95;2.60;;;;;;;5.30;100.00;99408.34;10219294;28;20168;-68
2023/01/15 01:01:43;;;;;;;4.70;2.90;;;;;;;5.32;100.00;99405.34;10184200;28;20048;-68
2023/01/15 01:06:41;;;;;;;5.75;2.67;;;;;;;5.30;100.00;99402.94;10217685;28;20192;-68
2023/01/15 01:11:37;;;;;;;7.88;2.80;;;;;;;5.34;100.00;99403.09;10173752;28;20061;-68
2023/01/15 01:16:36;;;;;;;5.93;2.55;;;;;;;5.36;100.00;99417.13;10204519;28;20046;-68
2023/01/15 01:21:33;;;;;;;8.50;2.65;;;;;;;5.36;100.00;99427.97;10158489;28;20046;-68
2023/01/15 01:26:30;;;;;;;5.95;2.70;;;;;;;5.40;100.00;99434.38;10191371;28;20042;-68
2023/01/15 01:31:26;;;;;;;5.68;2.75;;;;;;;5.46;100.00;99433.13;10157652;28;20116;-68
2023/01/15 01:36:29;;;;;;;5.63;2.90;;;;;;;5.43;100.00;99425.59;10181059;28;20170;-67
2023/01/15 01:41:26;;;;;;;10.48;3.10;;;;;;;5.41;100.00;99420.50;10157291;28;20058;-67
2023/01/15 01:46:25;;;;;;;7.57;2.90;;;;;;;5.41;100.00;99414.28;10211526;28;20080;-68
2023/01/15 01:51:25;;;;;;;6.15;3.33;;;;;;;5.44;100.00;99435.34;10211929;28;20570;-68
2023/01/15 01:56:22;;;;;;;6.70;3.00;;;;;;;5.46;100.00;99430.41;10210513;28;20076;-68
2023/01/15 02:01:21;;;;;;;5.40;2.85;;;;;;;5.44;100.00;99430.72;10209730;28;20599;-67
2023/01/15 02:06:18;;;;;;;6.03;3.28;;;;;;;5.46;100.00;99428.50;10222173;28;20574;-68
2023/01/15 02:11:18;;;;;;;8.85;3.15;;;;;;;5.45;100.00;99426.09;10167653;28;20054;-68
2023/01/15 02:16:38;;;;;;;6.90;3.28;;;;;;;5.49;100.00;99427.06;10189255;28;20050;-67
2023/01/15 02:22:03;;;;;;;5.93;2.85;;;;;;;5.44;100.00;99410.94;10136279;28;20128;-68
2023/01/15 02:27:06;;;;;;;5.30;3.10;;;;;;;5.44;100.00;99429.91;10186810;28;20045;-68
2023/01/15 02:32:08;;;;;;;6.50;2.78;;;;;;;5.52;100.00;99421.00;10155369;28;20078;-68
2023/01/15 02:37:09;;;;;;;11.85;4.60;;;;;;;5.49;100.00;99416.22;10186602;28;20496;-68
2023/01/15 02:42:08;;;;;;;6.45;2.88;;;;;;;5.51;100.00;99386.88;10194295;28;20144;-67
2023/01/15 02:47:07;;;;;;;7.80;3.45;;;;;;;5.48;100.00;99382.09;10214306;28;20046;-68
2023/01/15 02:52:12;;;;;;;7.18;2.72;;;;;;;5.46;100.00;99389.75;10194336;28;20053;-68
2023/01/15 02:57:10;;;;;;;5.53;2.88;;;;;;;5.47;100.00;99397.53;10179072;28;20134;-68
2023/01/15 03:02:14;;;;;;;10.38;3.30;;;;;;;5.43;100.00;99379.50;10154385;28;20582;-68
2023/01/15 03:07:17;;;;;;;9.18;2.97;;;;;;;5.42;100.00;99377.94;10199672;28;20038;-68
2023/01/15 03:12:21;;;;;;;8.50;2.90;;;;;;;5.46;100.00;99376.19;10154374;28;20089;-67
2023/01/15 03:17:23;;;;;;;11.05;3.78;;;;;;;5.43;100.00;99384.94;10197084;28;20046;-68
2023/01/15 03:22:27;;;;;;;13.20;4.23;;;;;;;5.45;100.00;99388.13;10153968;28;20069;-68
2023/01/15 03:27:23;;;;;;;7.13;3.30;;;;;;;5.41;100.00;99403.44;10159103;28;20077;-68
2023/01/15 03:32:21;;;;;;;10.32;4.45;;;;;;;5.36;100.00;99390.03;10153488;28;20496;-67
2023/01/15 03:37:19;;;;;;;10.05;3.15;;;;;;;5.35;100.00;99366.75;10222402;28;20050;-68
2023/01/15 03:42:21;;;;;;;10.35;3.15;;;;;;;5.38;100.00;99376.97;10214983;28;20411;-68
2023/01/15 03:47:48;;;;;;;9.98;3.42;;;;;;;5.35;100.00;99372.19;10231303;28;20648;-68
2023/01/15 03:52:53;;;;;;;15.40;4.13;;;;;;;5.26;100.00;99375.66;10197870;28;20129;-67
2023/01/15 03:58:01;;;;;;;11.65;4.60;;;;;;;5.36;100.00;99365.63;10239380;28;20095;-67
2023/01/15 04:03:00;;;;;;;10.40;3.78;;;;;;;5.36;100.00;99362.91;10194725;28;20074;-68
2023/01/15 04:07:58;;;;;;;11.13;4.13;;;;;;;5.31;100.00;99360.38;10240733;28;20037;-68
2023/01/15 04:12:55;;;;;;;13.13;4.10;;;;;;;5.35;100.00;99361.34;10208211;28;20049;-68
2023/01/15 04:17:51;;;;;;;9.50;3.67;;;;;;;5.34;100.00;99365.97;10221088;28;20042;-68
2023/01/15 04:22:47;;;;;;;8.90;3.67;;;;;;;5.34;100.00;99352.41;10160587;28;20049;-67
2023/01/15 04:27:44;;;;;;;9.85;3.33;;;;;;;5.32;100.00;99351.13;10223806;28;20080;-68
2023/01/15 04:32:40;;;;;;;9.75;4.32;;;;;;;5.34;100.00;99332.63;10200234;28;20053;-67
2023/01/15 04:37:37;;;;;;;8.88;3.38;;;;;;;5.39;100.00;99335.19;10204637;28;20121;-68
2023/01/15 04:47:48;;;;;;;12.43;3.80;;;;;;;5.39;100.00;99341.41;10215941;28;20041;-68
2023/01/15 04:52:44;;;;;;;7.80;4.00;;;;;;;5.30;100.00;99337.09;10198895;28;20153;-68
2023/01/15 04:57:41;;;;;;;11.15;4.22;;;;;;;5.27;100.00;99350.16;10180210;28;20088;-67
2023/01/15 05:02:37;;;;;;;11.90;3.63;;;;;;;5.26;100.00;99347.75;10159306;28;20057;-67
2023/01/15 05:07:34;;;;;;;12.73;4.32;;;;;;;5.28;100.00;99335.47;10217767;28;20137;-68
2023/01/15 05:12:30;;;;;;;17.23;4.28;;;;;;;5.24;100.00;99322.88;10198363;28;20077;-68
2023/01/15 05:17:26;;;;;;;9.38;3.60;;;;;;;5.21;100.00;99318.91;10203713;28;20074;-68
2023/01/15 05:22:23;;;;;;;11.50;4.05;;;;;;;5.26;100.00;99326.88;10158369;28;20049;-67
2023/01/15 05:27:19;;;;;;;21.35;5.50;;;;;;;5.22;100.00;99331.34;10184705;28;20692;-67
2023/01/15 05:32:16;;;;;;;14.48;4.72;;;;;;;5.34;100.00;99324.50;10157875;28;20054;-67
2023/01/15 05:37:12;;;;;;;11.73;3.85;;;;;;;5.23;100.00;99322.09;10164004;28;20479;-67
2023/01/15 05:42:09;;;;;;;9.73;4.20;;;;;;;5.15;100.00;99320.19;10157929;28;20052;-68
2023/01/15 05:47:06;;;;;;;9.05;4.25;;;;;;;5.20;100.00;99328.16;10223057;28;20414;-68
2023/01/15 05:52:03;;;;;;;10.88;4.72;;;;;;;5.18;100.00;99326.88;10221800;28;20046;-68
2023/01/15 05:57:00;;;;;;;10.05;3.65;;;;;;;5.18;100.00;99341.22;10228626;28;20208;-67
2023/01/15 06:01:57;;;;;;;10.40;4.38;;;;;;;5.17;100.00;99323.34;10192042;28;20046;-67
2023/01/15 06:06:55;;;;;;;14.98;4.60;;;;;;;5.14;100.00;99323.97;10218971;28;20459;-67
2023/01/15 06:11:52;;;;;;;7.97;4.60;;;;;;;5.18;100.00;99324.97;10229606;28;20046;-67
2023/01/15 06:16:49;;;;;;;15.88;4.63;;;;;;;5.17;100.00;99317.91;10226739;28;20128;-68
2023/01/15 06:21:46;;;;;;;9.63;4.68;;;;;;;5.21;100.00;99328.94;10218356;28;20046;-68
2023/01/15 06:26:42;;;;;;;11.02;4.93;;;;;;;5.24;100.00;99315.56;10225247;28;20152;-67
2023/01/15 06:31:38;;;;;;;13.40;5.47;;;;;;;5.32;100.00;99321.31;10188378;28;20050;-68
2023/01/15 06:36:35;;;;;;;8.55;4.50;;;;;;;5.23;100.00;99315.88;10212747;28;20591;-68
2023/01/15 06:52:04;;;;;;;11.77;4.57;;;;;;;5.39;100.00;99332.50;10155519;28;20056;-68
2023/01/15 06:57:01;;;;;;;15.38;5.90;;;;;;;5.35;100.00;99315.25;10196188;28;20100;-68
2023/01/15 07:01:57;;;;;;;12.23;4.90;;;;;;;5.37;100.00;99315.75;10155114;28;20054;-67
2023/01/15 07:06:53;;;;;;;11.15;4.90;;;;;;;5.30;100.00;99315.41;10181850;28;20456;-68
2023/01/15 07:11:50;;;;;;;8.55;4.85;;;;;;;5.33;100.00;99322.91;10154411;28;20053;-68
2023/01/15 07:16:47;;;;;;;10.27;4.82;;;;;;;5.28;100.00;99323.84;10193510;28;20077;-68
2023/01/15 07:21:44;;;;;;;14.43;5.07;;;;;;;5.32;100.00;99318.63;10152913;28;20104;-68
2023/01/15 07:26:41;;;;;;;13.13;4.85;;;;;;;5.33;100.00;99325.63;10171458;28;20191;-68
2023/01/15 07:31:38;;;;;;;11.60;4.90;;;;;;;5.29;100.00;99309.19;10153731;28;20077;-67
2023/01/15 07:36:35;;;;;;;11.88;4.53;;;;;;;5.25;100.00;99319.06;10166739;28;20046;-67
2023/01/15 07:52:02;;;;;;;8.25;4.72;;;;;;;5.17;100.00;99331.47;10153581;28;20062;-67
2023/01/15 07:56:58;;;;;;;13.15;5.20;;;;;;;5.14;100.00;99329.41;10216787;28;20511;-67
2023/01/15 08:01:55;;;;;;;6.95;4.60;;;;;;;5.13;100.00;99337.84;10215853;28;20133;-67
2023/01/15 08:06:51;;;;;;;10.77;4.68;;;;;;;5.13;100.00;99327.81;10223998;28;20484;-67
2023/01/15 08:17:03;;;;;;;10.93;5.45;;;;;;;5.11;100.00;99351.72;10165694;28;20412;-67
2023/01/15 08:22:00;;;;;;;13.95;5.90;;;;;;;5.20;100.00;99332.78;10152759;28;20479;-67
2023/01/15 08:26:56;;;;;;;13.15;5.80;;;;;;;5.23;100.00;99346.47;10216057;28;20722;-67
2023/01/15 08:31:53;;;;;;;11.07;5.00;;;;;;;5.16;100.00;99348.06;10232957;28;20045;-67
2023/01/15 08:36:55;;;;;;;7.43;4.88;;;;;;;5.05;100.00;99339.41;10221807;28;20041;-67
2023/01/15 08:41:53;;;;;;;9.32;4.60;;;;;;;5.08;100.00;99344.19;10218170;28;20113;-67
2023/01/15 08:46:52;;;;;;;10.32;5.28;;;;;;;4.97;100.00;99329.38;10230470;28;20124;-68
2023/01/15 08:51:50;;;;;;;14.15;5.53;;;;;;;4.92;100.00;99310.53;10167028;28;20049;-67
2023/01/15 08:56:48;;;;;;;9.85;6.28;;;;;;;4.91;100.00;99325.19;10214510;28;20037;-67
2023/01/15 09:01:45;;;;;;;8.88;6.07;;;;;;;4.95;100.00;99301.78;10198596;28;20050;-68
2023/01/15 09:06:41;;;;;;;10.27;6.70;;;;;;;4.93;100.00;99306.72;10214731;28;20420;-67
2023/01/15 09:11:39;;;;;;;10.07;6.25;;;;;;;4.92;100.00;99294.28;10158894;28;20125;-68
2023/01/15 09:16:36;;;;;;;14.00;6.85;;;;;;;4.93;100.00;99291.25;10197462;28;20054;-67
2023/01/15 09:21:33;;;;;;;9.13;6.88;;;;;;;4.82;100.00;99293.47;10177451;28;20053;-67
2023/01/15 09:26:33;;;;;;;10.82;5.70;;;;;;;4.79;100.00;99299.50;10214359;28;20483;-68
2023/01/15 09:31:30;;;;;;;11.25;5.97;;;;;;;4.91;100.00;99287.28;10171613;28;20092;-68
2023/01/15 09:36:32;;;;;;;11.23;5.85;;;;;;;5.04;100.00;99308.03;10213017;28;20072;-70
2023/01/15 09:42:06;;;;;;;11.27;5.80;;;;;;;5.07;100.00;99307.41;10163518;28;20512;-70
2023/01/15 09:47:10;;;;;;;9.73;5.22;;;;;;;5.17;100.00;99317.13;10190766;28;20460;-70
2023/01/15 09:52:18;;;;;;;7.22;5.30;;;;;;;5.27;100.00;99322.28;10197012;28;20422;-71
2023/01/15 09:57:16;;;;;;;10.55;5.63;;;;;;;5.48;100.00;99349.56;10199805;28;20203;-71
2023/01/15 10:02:19;;;;;;;7.80;5.38;;;;;;;5.72;100.00;99332.03;10195138;28;20042;-71
2023/01/15 10:07:29;;;;;;;8.63;5.63;;;;;;;5.93;100.00;99329.47;10230493;28;20150;-71
2023/01/15 10:12:34;;;;;;;11.82;6.03;;;;;;;6.06;100.00;99299.47;10219867;28;20416;-71
2023/01/15 10:17:42;;;;;;;12.10;5.68;;;;;;;6.08;100.00;99294.53;10230267;28;20037;-71
2023/01/15 10:23:05;;;;;;;8.20;5.75;;;;;;;6.01;100.00;99302.38;10174656;28;20130;-70
2023/01/15 10:28:15;;;;;;;9.73;5.18;;;;;;;6.24;100.00;99334.72;10155435;28;20046;-71
2023/01/15 10:33:46;;;;;;;13.48;6.38;;;;;;;6.51;100.00;99304.47;10158356;28;20054;-70
2023/01/15 10:39:15;;;;;;;11.38;6.10;;;;;;;6.47;100.00;99308.94;10184771;28;20048;-66
2023/01/15 10:44:23;;;;;;;16.90;5.60;;;;;;;6.22;100.00;99301.66;10209817;28;20045;-68
2023/01/15 10:49:19;;;;;;;10.02;5.97;;;;;;;6.31;100.00;99288.88;10158201;28;20046;-68
2023/01/15 10:54:39;;;;;;;14.35;6.05;;;;;;;6.28;100.00;99294.97;10164446;28;20497;-68
2023/01/15 10:59:46;;;;;;;8.50;5.47;;;;;;;6.18;100.00;99290.69;10154368;28;20042;-68
2023/01/15 11:04:42;;;;;;;9.32;5.50;;;;;;;6.05;100.00;99269.94;10196065;28;20093;-68
2023/01/15 11:09:41;;;;;;;9.07;5.10;;;;;;;6.18;100.00;99279.03;10234121;28;20618;-68
2023/01/15 11:19:57;;;;;;;17.40;6.13;;;;;;;6.04;100.00;99269.16;10192171;28;20080;-68
2023/01/15 11:24:58;;;;;;;8.05;5.45;;;;;;;6.04;100.00;99265.66;10162454;28;20126;-68
2023/01/15 11:29:57;;;;;;;9.43;4.95;;;;;;;5.98;100.00;99243.31;10153459;28;20158;-68
2023/01/15 11:35:16;;;;;;;7.97;5.07;;;;;;;5.81;100.00;99252.25;10183332;28;20053;-68
2023/01/15 11:40:19;;;;;;;10.48;5.28;;;;;;;5.17;100.00;99300.88;10232883;28;20142;-68
2023/01/15 11:50:42;;;;;;;9.57;6.45;;;;;;;4.85;100.00;99273.88;10220323;28;20046;-68
2023/01/15 11:55:39;;;;;;;7.00;5.18;;;;;;;4.74;100.00;99313.19;10214248;28;20501;-68
2023/01/15 12:00:43;;;;;;;5.10;4.60;;;;;;;4.34;100.00;99328.59;10183313;28;20528;-69
2023/01/15 12:05:46;;;;;;;5.05;4.00;;;;;;;3.61;100.00;99328.75;10195246;28;20088;-68
2023/01/15 12:11:04;;;;;;;4.10;3.70;;;;;;;3.34;100.00;99279.09;10185408;28;20042;-67
2023/01/15 12:16:43;;;;;;;6.25;4.50;;;;;;;4.31;100.00;99281.31;10212765;28;20052;-68
2023/01/15 12:22:04;;;;;;;5.00;4.60;;;;;;;4.32;100.00;99260.50;10160845;28;20447;-68
2023/01/15 12:27:25;;;;;;;5.32;4.90;;;;;;;4.81;100.00;99270.22;10206084;28;20119;-67
2023/01/15 12:32:30;;;;;;;5.00;4.40;;;;;;;5.80;100.00;99252.56;10198899;28;20292;-68
2023/01/15 12:37:32;;;;;;;5.43;4.57;;;;;;;6.17;100.00;99242.13;10235379;28;20049;-68
2023/01/15 12:48:21;;;;;;;7.93;4.97;;;;;;;4.88;100.00;99250.00;10235569;28;19935;-68
2023/01/15 12:53:44;;;;;;;13.50;5.60;;;;;;;5.27;100.00;99247.19;10122518;28;20073;-68
2023/01/15 12:58:48;;;;;;;7.50;6.07;;;;;;;6.15;100.00;99220.78;10207831;28;20573;-68
2023/01/15 13:03:58;;;;;;;7.28;5.63;;;;;;;6.06;100.00;99201.78;10170248;28;20072;-68
2023/01/15 13:09:03;;;;;;;9.43;5.53;;;;;;;5.61;100.00;99191.34;10175974;28;20047;-68
2023/01/15 13:13:59;;;;;;;11.73;6.28;;;;;;;5.30;100.00;99212.44;10174114;28;20099;-68
2023/01/15 13:19:21;;;;;;;6.53;5.22;;;;;;;5.34;100.00;99192.50;10237010;28;20526;-68
2023/01/15 13:25:02;;;;;;;5.85;5.00;;;;;;;5.31;100.00;99224.84;10215347;28;20060;-68
2023/01/15 13:30:20;;;;;;;10.25;5.10;;;;;;;5.30;100.00;99196.16;10238499;28;20510;-68
2023/01/15 13:35:39;;;;;;;10.90;4.93;;;;;;;5.37;100.00;99181.00;10193539;28;20053;-68
2023/01/15 13:40:49;;;;;;;9.50;5.30;;;;;;;5.38;100.00;99193.44;10225712;28;20636;-68
2023/01/15 13:45:49;;;;;;;10.82;5.63;;;;;;;5.35;100.00;99204.13;10200526;28;20107;-68
2023/01/15 13:50:54;;;;;;;6.65;4.72;;;;;;;5.40;100.00;99179.56;10226324;28;20089;-67
2023/01/15 13:55:54;;;;;;;11.80;6.45;;;;;;;5.54;100.00;99166.63;10219893;28;20242;-68
2023/01/15 14:01:21;;;;;;;9.25;5.38;;;;;;;5.66;100.00;99187.66;10181739;28;20070;-68
2023/01/15 14:06:17;;;;;;;8.32;5.22;;;;;;;5.76;100.00;99178.41;10191676;28;20104;-68
2023/01/15 14:11:35;;;;;;;5.78;5.10;;;;;;;5.66;100.00;99180.34;10156910;28;20497;-68
2023/01/15 14:16:52;;;;;;;8.25;5.32;;;;;;;5.59;100.00;99181.94;10181250;28;20046;-68
2023/01/15 14:22:12;;;;;;;10.00;7.25;;;;;;;5.63;100.00;99161.19;10156286;28;20502;-68
2023/01/15 14:27:33;;;;;;;7.10;5.55;;;;;;;5.70;100.00;99166.91;10222463;28;20522;-68
2023/01/15 14:32:45;;;;;;;9.13;6.50;;;;;;;5.78;100.00;99146.31;10198132;28;20062;-67
2023/01/15 14:37:56;;;;;;;10.05;5.68;;;;;;;5.81;100.00;99151.09;10231479;28;20042;-69
2023/01/15 14:43:01;;;;;;;14.63;6.10;;;;;;;5.84;100.00;99159.38;10179618;28;20052;-68
2023/01/15 14:48:17;;;;;;;10.60;5.93;;;;;;;5.87;100.00;99172.31;10188406;28;20504;-67
2023/01/15 14:53:31;;;;;;;11.02;6.07;;;;;;;5.80;100.00;99163.06;10157861;28;20056;-68
2023/01/15 14:58:37;;;;;;;11.65;6.05;;;;;;;5.81;100.00;99178.22;10200298;28;20129;-68
2023/01/15 15:03:38;;;;;;;7.93;6.00;;;;;;;5.83;100.00;99181.41;10162991;28;20152;-67
2023/01/15 15:08:34;;;;;;;19.92;6.47;;;;;;;5.68;100.00;99197.06;10164090;28;20508;-67
2023/01/15 15:13:39;;;;;;;9.13;7.10;;;;;;;5.61;100.00;99218.44;10161762;28;20571;-68
2023/01/15 15:18:40;;;;;;;8.15;6.72;;;;;;;5.41;100.00;99232.69;10161293;28;20042;-68
2023/01/15 15:24:18;;;;;;;9.82;8.00;;;;;;;5.03;100.00;99252.25;10153970;28;20046;-68
2023/01/15 15:29:16;;;;;;;8.40;4.80;;;;;;;4.94;100.00;99267.69;10145975;28;20416;-69
2023/01/15 15:34:18;;;;;;;9.32;8.43;;;;;;;4.77;100.00;99282.78;10181457;28;20085;-67
2023/01/15 15:39:22;;;;;;;12.30;10.67;;;;;;;4.52;100.00;99308.63;10233057;28;20037;-67
2023/01/15 15:50:25;;;;;;;15.05;13.77;;;;;;;4.03;100.00;99401.59;10232809;28;20049;-67
2023/01/15 15:55:24;;;;;;;19.38;18.05;;;;;;;3.84;100.00;99359.31;10211206;28;20081;-67
2023/01/15 16:00:31;;;;;;;20.92;19.48;;;;;;;3.77;100.00;99367.03;10225605;28;20049;-67
2023/01/15 16:05:30;;;;;;;23.85;22.25;;;;;;;3.78;100.00;99376.75;10212724;28;20046;-67
2023/01/15 16:10:33;;;;;;;21.98;20.33;;;;;;;3.78;100.00;99382.16;10181079;28;20057;-67
2023/01/15 16:15:34;;;;;;;22.27;20.67;;;;;;;3.77;100.00;99380.56;10193038;28;20045;-67
2023/01/15 16:20:31;;;;;;;19.55;17.83;;;;;;;3.72;100.00;99402.31;10153517;28;20193;-67
2023/01/15 16:25:38;;;;;;;23.63;21.42;;;;;;;3.66;100.00;99384.59;10176206;28;20061;-67
2023/01/15 16:30:35;;;;;;;21.63;19.95;;;;;;;3.57;100.00;99404.25;10192716;28;20439;-67
2023/01/15 16:35:35;;;;;;;21.95;20.45;;;;;;;3.51;100.00;99405.44;10196053;28;20065;-67
2023/01/15 16:40:36;;;;;;;24.63;23.02;;;;;;;3.54;100.00;99426.44;10192106;28;20075;-67
2023/01/15 16:45:34;;;;;;;28.70;26.67;;;;;;;3.51;100.00;99416.25;10211390;28;20055;-67
2023/01/15 16:50:32;;;;;;;29.15;26.98;;;;;;;3.57;100.00;99436.69;10218910;28;20077;-68
2023/01/15 16:55:41;;;;;;;28.73;26.92;;;;;;;3.59;100.00;99493.13;10196071;28;20176;-67
2023/01/15 17:00:43;;;;;;;21.88;20.63;;;;;;;3.54;100.00;99464.28;10207023;28;20093;-67
2023/01/15 17:05:40;;;;;;;18.80;17.70;;;;;;;3.49;100.00;99480.63;10201617;28;20041;-67
2023/01/15 17:10:37;;;;;;;23.40;21.98;;;;;;;3.54;100.00;99480.50;10183961;28;20069;-68
2023/01/15 17:15:37;;;;;;;21.77;20.38;;;;;;;3.57;100.00;99469.13;10199098;28;20049;-67
2023/01/15 17:20:34;;;;;;;17.77;16.60;;;;;;;3.59;100.00;99468.78;10158820;28;20066;-68
2023/01/15 17:25:33;;;;;;;21.25;19.85;;;;;;;3.66;100.00;99476.50;10194776;28;20121;-67
2023/01/15 17:30:31;;;;;;;21.95;20.05;;;;;;;3.72;100.00;99459.06;10198046;28;20049;-67
2023/01/15 17:35:32;;;;;;;18.83;17.63;;;;;;;3.78;100.00;99483.00;10190850;28;20078;-67
2023/01/15 17:40:29;;;;;;;19.00;17.77;;;;;;;3.82;100.00;99501.31;10157621;28;20051;-68
2023/01/15 17:45:28;;;;;;;18.73;17.10;;;;;;;3.84;100.00;99470.16;10208886;28;20049;-68
2023/01/15 17:50:24;;;;;;;17.02;15.95;;;;;;;3.92;100.00;99493.81;10223893;28;20046;-68
2023/01/15 18:05:52;;;;;;;19.48;18.05;;;;;;;3.92;100.00;99491.09;10198872;28;20074;-68
2023/01/15 18:10:49;;;;;;;18.23;16.92;;;;;;;3.95;100.00;99481.56;10156613;28;20046;-68
2023/01/15 18:15:45;;;;;;;18.88;17.15;;;;;;;4.08;100.00;99498.84;10164327;28;20471;-68
2023/01/15 18:20:42;;;;;;;20.27;18.77;;;;;;;4.08;100.00;99501.56;10156038;28;20046;-68
2023/01/15 18:25:44;;;;;;;18.35;16.85;;;;;;;4.15;100.00;99504.66;10159873;28;20053;-68
2023/01/15 18:30:41;;;;;;;18.27;16.88;;;;;;;4.22;100.00;99532.09;10154722;28;20077;-67
2023/01/15 18:35:37;;;;;;;20.10;18.80;;;;;;;4.21;100.00;99519.69;10207891;28;20095;-68
2023/01/15 18:40:34;;;;;;;17.10;15.68;;;;;;;4.27;100.00;99520.34;10233806;28;20041;-68
2023/01/15 18:50:47;;;;;;;14.32;12.93;;;;;;;4.32;100.00;99558.94;10202212;28;20069;-68
2023/01/15 18:55:44;;;;;;;12.32;11.43;;;;;;;4.26;100.00;99533.09;10216356;28;20061;-68
2023/01/15 19:00:40;;;;;;;13.30;12.07;;;;;;;4.21;100.00;99547.53;10194212;28;20459;-68
2023/01/15 19:05:37;;;;;;;12.48;11.32;;;;;;;4.15;100.00;99547.94;10209398;28;20045;-68
2023/01/15 19:10:33;;;;;;;14.23;12.95;;;;;;;4.09;100.00;99546.47;10152970;28;20046;-68
2023/01/15 19:20:45;;;;;;;11.95;10.75;;;;;;;4.15;100.00;99569.59;10153696;28;20173;-68
2023/01/15 19:25:44;;;;;;;14.02;12.82;;;;;;;4.20;100.00;99577.59;10196668;28;20075;-67
2023/01/15 19:30:41;;;;;;;14.20;12.95;;;;;;;4.16;100.00;99573.91;10234236;28;20500;-68
2023/01/15 19:35:38;;;;;;;13.57;12.50;;;;;;;4.22;100.00;99641.13;10209199;28;20064;-68
2023/01/15 19:40:39;;;;;;;12.05;11.00;;;;;;;4.22;100.00;99580.78;10222712;28;20065;-68
2023/01/15 19:51:10;;;;;;;14.20;13.00;;;;;;;4.17;100.00;99599.84;10135529;28;20047;-67
2023/01/15 19:56:07;;;;;;;14.57;13.35;;;;;;;4.11;100.00;99606.47;10201941;28;20132;-67
2023/01/15 20:01:03;;;;;;;15.88;14.77;;;;;;;3.99;100.00;99621.31;10159119;28;20097;-67
2023/01/15 20:06:00;;;;;;;16.60;14.88;;;;;;;3.87;100.00;99623.69;10171815;28;20176;-68
2023/01/15 20:10:56;;;;;;;17.70;16.45;;;;;;;3.85;100.00;99634.00;10152935;28;20145;-68
2023/01/15 20:15:53;;;;;;;16.27;15.27;;;;;;;3.76;100.00;99622.28;10204838;28;20047;-67
2023/01/15 20:20:49;;;;;;;16.25;14.80;;;;;;;3.79;100.00;99640.63;10232871;28;20128;-67
2023/01/15 20:25:49;;;;;;;18.80;17.27;;;;;;;3.75;100.00;99650.41;10223449;28;20076;-68
2023/01/15 20:30:46;;;;;;;13.38;10.85;;;;;;;3.90;100.00;99671.78;10238064;28;20626;-67
2023/01/15 20:35:42;;;;;;;17.35;16.00;;;;;;;3.92;100.00;99653.34;10227156;28;20065;-68
2023/01/15 20:40:38;;;;;;;16.08;14.82;;;;;;;3.91;100.00;99646.34;10229719;28;20424;-68
2023/01/15 20:45:35;;;;;;;11.07;10.20;;;;;;;3.93;100.00;99646.84;10219257;28;20061;-67
2023/01/15 20:50:35;;;;;;;10.73;9.82;;;;;;;3.97;100.00;99650.56;10232803;28;20081;-68
2023/01/15 20:55:35;;;;;;;11.85;10.55;;;;;;;3.97;100.00;99639.72;10199818;28;20500;-67
2023/01/15 21:00:52;;;;;;;12.43;10.95;;;;;;;3.99;100.00;99653.75;10198596;28;20574;-68
2023/01/15 21:05:48;;;;;;;9.70;8.80;;;;;;;4.08;100.00;99639.53;10203893;28;20542;-68
2023/01/15 21:10:44;;;;;;;11.40;10.32;;;;;;;4.10;100.00;99648.13;10186038;28;20042;-68
2023/01/15 21:15:41;;;;;;;12.32;10.52;;;;;;;4.11;100.00;99644.34;10201416;28;20519;-68
2023/01/15 21:20:39;;;;;;;9.98;9.00;;;;;;;4.07;100.00;99654.16;10208732;28;20042;-68
2023/01/15 21:25:37;;;;;;;10.80;9.23;;;;;;;4.07;100.00;99632.53;10217748;28;20467;-64
2023/01/15 21:30:33;;;;;;;10.48;8.23;;;;;;;4.04;100.00;99633.09;10158060;28;20075;-68
2023/01/15 21:35:30;;;;;;;12.68;9.63;;;;;;;4.02;100.00;99624.50;10190428;28;20532;-68
2023/01/15 21:40:26;;;;;;;11.55;10.55;;;;;;;3.86;100.00;99621.31;10156268;28;20042;-68
2023/01/15 21:45:23;;;;;;;13.07;11.75;;;;;;;3.79;100.00;99643.31;10195686;28;20053;-69
2023/01/15 21:50:19;;;;;;;17.45;10.50;;;;;;;3.76;100.00;99641.19;10236095;28;20081;-68
2023/01/15 21:55:15;;;;;;;11.40;10.40;;;;;;;3.82;100.00;99637.31;10193652;28;20061;-68
2023/01/15 22:00:12;;;;;;;12.25;10.40;;;;;;;3.74;100.00;99646.13;10235129;28;20526;-68
2023/01/15 22:05:09;;;;;;;13.68;9.30;;;;;;;3.74;100.00;99668.56;10191206;28;20065;-68
2023/01/15 22:10:05;;;;;;;11.20;10.02;;;;;;;3.72;100.00;99654.53;10212492;28;20058;-68
2023/01/15 22:15:02;;;;;;;12.95;9.63;;;;;;;3.72;100.00;99648.31;10189427;28;20048;-69
2023/01/15 22:19:59;;;;;;;11.00;9.98;;;;;;;3.72;100.00;99656.44;10173882;28;20050;-68
2023/01/15 22:24:55;;;;;;;17.42;9.57;;;;;;;3.76;100.00;99654.72;10184162;28;20049;-68
2023/01/15 22:29:52;;;;;;;10.18;9.27;;;;;;;3.70;100.00;99661.34;10195796;28;20069;-68
2023/01/15 22:34:48;;;;;;;11.45;10.27;;;;;;;3.69;100.00;99655.13;10202644;28;20088;-68
2023/01/15 22:39:45;;;;;;;11.00;10.00;;;;;;;3.78;100.00;99652.50;10170455;28;20122;-68
2023/01/15 22:44:43;;;;;;;13.95;13.02;;;;;;;3.90;100.00;99643.91;10159109;28;20074;-68
2023/01/15 22:49:40;;;;;;;10.93;9.95;;;;;;;3.92;100.00;99647.94;10155171;28;20043;-68
2023/01/15 22:54:36;;;;;;;10.32;9.50;;;;;;;3.96;100.00;99659.75;10179795;28;20575;-68
2023/01/15 22:59:33;;;;;;;9.07;8.32;;;;;;;3.95;100.00;99641.94;10178796;28;20054;-68
2023/01/15 23:04:29;;;;;;;8.85;8.00;;;;;;;3.98;100.00;99646.72;10177972;28;20507;-68
2023/01/15 23:09:26;;;;;;;10.98;10.07;;;;;;;3.95;100.00;99636.53;10171822;28;20042;-68
2023/01/15 23:14:22;;;;;;;10.13;9.43;;;;;;;3.95;100.00;99644.63;10176082;28;20487;-67
2023/01/15 23:19:19;;;;;;;9.02;8.20;;;;;;;3.98;100.00;99651.34;10155975;28;20150;-67
2023/01/15 23:24:15;;;;;;;9.25;8.55;;;;;;;3.97;100.00;99642.44;10180141;28;20055;-67
2023/01/15 23:29:12;;;;;;;9.45;8.65;;;;;;;3.97;100.00;99639.72;10233613;28;20069;-67
2023/01/15 23:34:09;;;;;;;9.40;8.70;;;;;;;3.98;100.00;99651.34;10184527;28;20077;-67
2023/01/15 23:39:05;;;;;;;9.73;8.82;;;;;;;3.98;100.00;99652.13;10213145;28;20073;-68
2023/01/15 23:49:18;;;;;;;11.95;10.82;;;;;;;4.00;100.00;99641.81;10202277;28;20743;-68
2023/01/15 23:54:14;;;;;;;11.90;10.90;;;;;;;4.06;100.00;99639.03;10200419;28;20076;-68
2023/01/15 23:59:11;;;;;;;12.35;11.25;;;;;;;4.06;100.00;99641.72;10233412;28;20037;-68
